Main page
METAR-TAF:

METAR-TAF

Airports :

Melilla Airport

Melilla, Spain

latitude: 35-17N, longitude: 002-57W, elevation: 47 m

Current weather observation

The report was made 12 minutes ago, at 09:00 UTC
Wind 3 kt from the Southwest
Temperature 19°C
Humidity 34%
Pressure 1014 hPa
Visibility 10 km or more
no clouds below 1500 m and no cumulonimbus

METAR: GEML 240900Z 22003KT CAVOK 19/03 Q1014

Time: 11:12 (09:12 UTC)

Forecast

The report was made 1 hour and 12 minutes ago, at 08:00 UTC
Forecast valid from 24 at 09 UTC to 25 at 09 UTC
Wind 4 kt from variable directions
Visibility 10 km or more
Few clouds at a height of 3000 ft

TAF: GEML 240800Z 2409/2509 VRB04KT 9999 FEW030 TX21/2413Z TN12/2506Z

Weather observations and forecasts of more than 4000 airports (METAR and TAF reports).

The available stations are represented by yellow and red dots on the map.

Hover mouse over dot to see the name of the station.

Then click to see weather observations and forecasts.

To change the map : click on the green buttons with a black cross to zoom in, on the green button with a dash to zoom out, or on the green arrows for adjacent maps.


METAR-TAF: